Time;durP1;ratioP1;P1;durP2;ratioP2;P2;SDS_P1;SDS_P2;PMS_P1;PMS_P2;Temp;Humidity;BMP_temperature;BMP_pressure;BME280_temperature;BME280_humidity;BME280_pressure;Samples;Min_cycle;Max_cycle;Signal;HPM_P1;HPM_P2
2022/08/14 00:01:12;;;;;;;;;;;;;;;;;;5017134;28;19910;-32
2022/08/14 00:03:38;;;;;;;;;;;;;;;;;;5016685;28;19914;-30
2022/08/14 00:06:04;;;;;;;;;;;;;;;;;;5016957;28;19918;-32
2022/08/14 00:08:30;;;;;;;;;;;;;;;;;;5016960;28;19939;-29
2022/08/14 00:10:56;;;;;;;;;;;;;;;;;;5016918;28;20064;-31
2022/08/14 00:13:22;;;;;;;;;;;;;;;;;;5016766;28;19920;-31
2022/08/14 00:15:48;;;;;;;;;;;;;;;;;;5017123;28;20004;-31
2022/08/14 00:18:14;;;;;;;;;;;;;;;;;;5017043;28;20304;-31
2022/08/14 00:20:40;;;;;;;;;;;;;;;;;;5016704;28;19925;-30
2022/08/14 00:23:06;;;;;;;;;;;;;;;;;;5016657;28;20265;-31
2022/08/14 00:25:32;;;;;;;;;;;;;;;;;;5016638;28;19914;-30
2022/08/14 00:27:58;;;;;;;;;;;;;;;;;;5016511;28;19923;-30
2022/08/14 00:30:24;;;;;;;;;;;;;;;;;;5016776;28;19917;-31
2022/08/14 00:32:50;;;;;;;;;;;;;;;;;;5016936;28;19971;-30
2022/08/14 00:35:16;;;;;;;;;;;;;;;;;;5016677;28;19967;-30
2022/08/14 00:37:42;;;;;;;;;;;;;;;;;;5015846;28;19924;-30
2022/08/14 00:40:08;;;;;;;;;;;;;;;;;;5016351;28;20257;-31
2022/08/14 00:42:34;;;;;;;;;;;;;;;;;;5016814;28;20245;-31
2022/08/14 00:45:00;;;;;;;;;;;;;;;;;;5016223;28;19924;-31
2022/08/14 00:47:26;;;;;;;;;;;;;;;;;;5015211;28;19917;-32
2022/08/14 00:49:52;;;;;;;;;;;;;;;;;;5016219;28;19914;-31
2022/08/14 00:52:18;;;;;;;;;;;;;;;;;;5016499;28;19920;-31
2022/08/14 00:54:44;;;;;;;;;;;;;;;;;;5016080;28;19909;-31
2022/08/14 00:57:10;;;;;;;;;;;;;;;;;;5016321;28;19959;-31
2022/08/14 00:59:36;;;;;;;;;;;;;;;;;;5016294;28;19909;-31
2022/08/14 01:02:02;;;;;;;;;;;;;;;;;;5015938;28;19909;-31
2022/08/14 01:04:30;;;;;;;;;;;;;;;;;;5015749;28;20300;-31
2022/08/14 01:06:56;;;;;;;;;;;;;;;;;;5016415;28;19956;-32
2022/08/14 01:09:22;;;;;;;;;;;;;;;;;;5015871;28;19914;-31
2022/08/14 01:11:48;;;;;;;;;;;;;;;;;;5015792;28;20253;-31
2022/08/14 01:14:14;;;;;;;;;;;;;;;;;;5016146;28;20000;-30
2022/08/14 01:16:40;;;;;;;;;;;;;;;;;;5015756;28;20396;-30
2022/08/14 01:21:51;;;;;;;;;;;;;;;;;;5015976;28;19928;-30
2022/08/14 01:24:17;;;;;;;;;;;;;;;;;;5015619;28;19913;-30
2022/08/14 01:26:45;;;;;;;;;;;;;;;;;;5015536;28;19917;-30
2022/08/14 01:29:12;;;;;;;;;;;;;;;;;;5015589;28;19979;-32
2022/08/14 01:31:51;;;;;;;;;;;;;;;;;;5016105;28;19925;-31
2022/08/14 01:34:19;;;;;;;;;;;;;;;;;;5016092;28;19996;-31
2022/08/14 01:36:45;;;;;;;;;;;;;;;;;;5015797;28;20229;-31
2022/08/14 01:39:11;;;;;;;;;;;;;;;;;;5015452;28;19972;-32
2022/08/14 01:41:37;;;;;;;;;;;;;;;;;;5016013;28;19924;-31
2022/08/14 01:44:04;;;;;;;;;;;;;;;;;;5015302;28;19923;-32
2022/08/14 01:46:30;;;;;;;;;;;;;;;;;;5015575;28;19960;-31
2022/08/14 01:48:56;;;;;;;;;;;;;;;;;;5015367;28;19913;-31
2022/08/14 01:51:23;;;;;;;;;;;;;;;;;;5015333;28;20299;-31
2022/08/14 01:53:49;;;;;;;;;;;;;;;;;;5015502;28;20284;-31
2022/08/14 01:56:17;;;;;;;;;;;;;;;;;;5015286;28;19909;-31
2022/08/14 01:58:44;;;;;;;;;;;;;;;;;;5015490;28;19914;-31
2022/08/14 02:01:10;;;;;;;;;;;;;;;;;;5015224;28;19917;-30
2022/08/14 02:03:36;;;;;;;;;;;;;;;;;;5014913;28;20071;-31
2022/08/14 02:06:02;;;;;;;;;;;;;;;;;;5014272;28;19945;-31
2022/08/14 02:08:31;;;;;;;;;;;;;;;;;;5015382;28;20335;-31
2022/08/14 02:13:42;;;;;;;;;;;;;;;;;;5015139;28;20003;-32
2022/08/14 02:16:08;;;;;;;;;;;;;;;;;;5014156;28;20341;-32
2022/08/14 02:18:34;;;;;;;;;;;;;;;;;;5015344;28;19941;-31
2022/08/14 02:21:00;;;;;;;;;;;;;;;;;;5015086;28;20369;-31
2022/08/14 02:23:26;;;;;;;;;;;;;;;;;;5015511;28;19920;-31
2022/08/14 02:25:52;;;;;;;;;;;;;;;;;;5014966;28;19909;-31
2022/08/14 02:28:18;;;;;;;;;;;;;;;;;;5014893;28;19917;-31
2022/08/14 02:30:44;;;;;;;;;;;;;;;;;;5015553;28;19916;-31
2022/08/14 02:33:10;;;;;;;;;;;;;;;;;;5014845;28;19924;-31
2022/08/14 02:35:36;;;;;;;;;;;;;;;;;;5014915;28;19910;-31
2022/08/14 02:38:02;;;;;;;;;;;;;;;;;;5014908;28;19914;-32
2022/08/14 02:40:31;;;;;;;;;;;;;;;;;;5014931;28;19925;-31
2022/08/14 02:42:57;;;;;;;;;;;;;;;;;;5015027;28;20031;-32
2022/08/14 02:45:23;;;;;;;;;;;;;;;;;;5014827;28;19909;-31
2022/08/14 02:47:49;;;;;;;;;;;;;;;;;;5015275;28;19924;-32
2022/08/14 02:50:16;;;;;;;;;;;;;;;;;;5014820;28;20281;-31
2022/08/14 02:52:42;;;;;;;;;;;;;;;;;;5014640;28;20365;-30
2022/08/14 02:55:08;;;;;;;;;;;;;;;;;;5015277;28;19936;-32
2022/08/14 02:57:34;;;;;;;;;;;;;;;;;;5014986;28;20000;-31
2022/08/14 03:00:01;;;;;;;;;;;;;;;;;;5016605;28;19945;-32
2022/08/14 03:02:32;;;;;;;;;;;;;;;;;;5018435;28;20072;-31
2022/08/14 03:04:58;;;;;;;;;;;;;;;;;;5018516;28;20376;-31
2022/08/14 03:07:24;;;;;;;;;;;;;;;;;;5018043;28;19925;-31
2022/08/14 03:09:50;;;;;;;;;;;;;;;;;;5018684;28;19917;-31
2022/08/14 03:12:16;;;;;;;;;;;;;;;;;;5018432;28;19913;-32
2022/08/14 03:14:48;;;;;;;;;;;;;;;;;;5018315;28;20398;-32
2022/08/14 03:17:14;;;;;;;;;;;;;;;;;;5018274;28;20237;-32
2022/08/14 03:19:40;;;;;;;;;;;;;;;;;;5017911;28;19940;-31
2022/08/14 03:22:06;;;;;;;;;;;;;;;;;;5017800;28;19909;-31
2022/08/14 03:24:34;;;;;;;;;;;;;;;;;;5017797;28;19960;-32
2022/08/14 03:27:00;;;;;;;;;;;;;;;;;;5017699;28;19922;-32
2022/08/14 03:29:27;;;;;;;;;;;;;;;;;;5017718;28;19914;-31
2022/08/14 03:31:53;;;;;;;;;;;;;;;;;;5018139;28;20420;-32
2022/08/14 03:34:22;;;;;;;;;;;;;;;;;;5017628;28;19996;-31
2022/08/14 03:36:53;;;;;;;;;;;;;;;;;;5017501;28;20345;-32
2022/08/14 03:39:20;;;;;;;;;;;;;;;;;;5018362;28;19920;-31
2022/08/14 03:41:46;;;;;;;;;;;;;;;;;;5016553;28;19924;-31
2022/08/14 03:44:12;;;;;;;;;;;;;;;;;;5017469;28;20027;-31
2022/08/14 03:46:41;;;;;;;;;;;;;;;;;;5017604;28;20363;-31
2022/08/14 03:49:08;;;;;;;;;;;;;;;;;;5017290;28;19913;-32
2022/08/14 03:51:34;;;;;;;;;;;;;;;;;;5017251;28;19913;-31
2022/08/14 03:54:00;;;;;;;;;;;;;;;;;;5017189;28;20115;-32
2022/08/14 03:56:28;;;;;;;;;;;;;;;;;;5017799;28;19909;-31
2022/08/14 03:58:54;;;;;;;;;;;;;;;;;;5017073;28;19913;-32
2022/08/14 04:01:22;;;;;;;;;;;;;;;;;;5017085;28;19914;-31
2022/08/14 04:03:48;;;;;;;;;;;;;;;;;;5016998;28;19928;-31
2022/08/14 04:06:15;;;;;;;;;;;;;;;;;;5016998;28;19964;-30
2022/08/14 04:08:41;;;;;;;;;;;;;;;;;;5017228;28;19917;-31
2022/08/14 04:11:07;;;;;;;;;;;;;;;;;;5017128;28;19921;-32
2022/08/14 04:13:34;;;;;;;;;;;;;;;;;;5016761;28;19975;-31
2022/08/14 04:16:00;;;;;;;;;;;;;;;;;;5016843;28;19967;-31
2022/08/14 04:18:26;;;;;;;;;;;;;;;;;;5016775;28;20327;-32
2022/08/14 04:20:52;;;;;;;;;;;;;;;;;;5016795;28;19909;-31
2022/08/14 04:23:18;;;;;;;;;;;;;;;;;;5016888;28;19920;-31
2022/08/14 04:25:44;;;;;;;;;;;;;;;;;;5016961;28;19909;-32
2022/08/14 04:28:10;;;;;;;;;;;;;;;;;;5016525;28;20264;-30
2022/08/14 04:30:39;;;;;;;;;;;;;;;;;;5015647;28;20337;-31
2022/08/14 04:33:06;;;;;;;;;;;;;;;;;;5016742;28;19921;-31
2022/08/14 04:35:32;;;;;;;;;;;;;;;;;;5016707;28;20214;-31
2022/08/14 04:43:38;;;;;;;;;;;;;;;;;;5016345;28;19937;-31
2022/08/14 04:46:04;;;;;;;;;;;;;;;;;;5016261;28;19913;-31
2022/08/14 04:48:30;;;;;;;;;;;;;;;;;;5016188;28;19936;-31
2022/08/14 04:50:56;;;;;;;;;;;;;;;;;;5016217;28;20012;-31
2022/08/14 04:53:22;;;;;;;;;;;;;;;;;;5016354;28;19984;-31
2022/08/14 04:55:49;;;;;;;;;;;;;;;;;;5016470;28;19909;-31
2022/08/14 04:58:16;;;;;;;;;;;;;;;;;;5016333;28;19921;-32
2022/08/14 05:00:42;;;;;;;;;;;;;;;;;;5016363;28;19910;-31
2022/08/14 05:03:08;;;;;;;;;;;;;;;;;;5016178;28;19925;-31
2022/08/14 05:05:35;;;;;;;;;;;;;;;;;;5015826;28;19921;-31
2022/08/14 05:08:01;;;;;;;;;;;;;;;;;;5015818;28;19996;-31
2022/08/14 05:10:27;;;;;;;;;;;;;;;;;;5015843;28;19924;-31
2022/08/14 05:12:53;;;;;;;;;;;;;;;;;;5016105;28;19997;-31
2022/08/14 05:15:20;;;;;;;;;;;;;;;;;;5015779;28;19949;-31
2022/08/14 05:17:46;;;;;;;;;;;;;;;;;;5016057;28;20268;-31
2022/08/14 05:20:12;;;;;;;;;;;;;;;;;;5016266;28;19913;-31
2022/08/14 05:22:38;;;;;;;;;;;;;;;;;;5015203;28;20352;-31
2022/08/14 05:25:04;;;;;;;;;;;;;;;;;;5015699;28;19941;-30
2022/08/14 05:27:30;;;;;;;;;;;;;;;;;;5015606;28;19960;-31
2022/08/14 05:29:56;;;;;;;;;;;;;;;;;;5015867;28;20339;-30
2022/08/14 05:32:22;;;;;;;;;;;;;;;;;;5015513;28;19920;-30
2022/08/14 05:34:48;;;;;;;;;;;;;;;;;;5016059;28;19959;-30
2022/08/14 05:37:14;;;;;;;;;;;;;;;;;;5015557;28;19979;-31
2022/08/14 05:39:40;;;;;;;;;;;;;;;;;;5015491;28;20004;-31
2022/08/14 05:42:06;;;;;;;;;;;;;;;;;;5015406;28;19913;-31
2022/08/14 05:44:32;;;;;;;;;;;;;;;;;;5015413;28;20344;-31
2022/08/14 05:46:58;;;;;;;;;;;;;;;;;;5015356;28;19956;-31
2022/08/14 05:49:24;;;;;;;;;;;;;;;;;;5015909;28;19929;-31
2022/08/14 05:51:50;;;;;;;;;;;;;;;;;;5015243;28;20362;-31
2022/08/14 05:54:16;;;;;;;;;;;;;;;;;;5015305;28;19937;-31
2022/08/14 05:56:43;;;;;;;;;;;;;;;;;;5015292;28;19975;-31
2022/08/14 05:59:10;;;;;;;;;;;;;;;;;;5015470;28;19925;-31
2022/08/14 06:01:36;;;;;;;;;;;;;;;;;;5015301;28;19909;-30
2022/08/14 06:04:02;;;;;;;;;;;;;;;;;;5014898;28;20004;-31
2022/08/14 06:06:28;;;;;;;;;;;;;;;;;;5015527;28;19968;-31
2022/08/14 06:08:54;;;;;;;;;;;;;;;;;;5015476;28;19909;-30
2022/08/14 06:11:20;;;;;;;;;;;;;;;;;;5015698;28;19913;-31
2022/08/14 06:13:46;;;;;;;;;;;;;;;;;;5015306;28;20345;-31
2022/08/14 06:16:12;;;;;;;;;;;;;;;;;;5015130;28;19913;-31
2022/08/14 06:18:38;;;;;;;;;;;;;;;;;;5015334;28;20264;-31
2022/08/14 06:21:04;;;;;;;;;;;;;;;;;;5015023;28;19910;-31
2022/08/14 06:23:30;;;;;;;;;;;;;;;;;;5014977;28;19975;-30
2022/08/14 06:25:56;;;;;;;;;;;;;;;;;;5015048;28;20264;-31
2022/08/14 06:28:22;;;;;;;;;;;;;;;;;;5015205;28;20333;-31
2022/08/14 06:30:48;;;;;;;;;;;;;;;;;;5015247;28;19921;-31
2022/08/14 06:33:14;;;;;;;;;;;;;;;;;;5014871;28;19921;-31
2022/08/14 06:35:40;;;;;;;;;;;;;;;;;;5017450;28;19921;-30
2022/08/14 06:38:06;;;;;;;;;;;;;;;;;;5018943;28;19914;-31
2022/08/14 06:40:32;;;;;;;;;;;;;;;;;;5018660;28;19968;-31
2022/08/14 06:42:58;;;;;;;;;;;;;;;;;;5018548;28;19991;-30
2022/08/14 06:45:24;;;;;;;;;;;;;;;;;;5018566;28;20251;-30
2022/08/14 06:47:50;;;;;;;;;;;;;;;;;;5018410;28;19948;-31
2022/08/14 06:50:16;;;;;;;;;;;;;;;;;;5018470;28;19909;-30
2022/08/14 06:52:42;;;;;;;;;;;;;;;;;;5018891;28;19918;-31
2022/08/14 06:55:08;;;;;;;;;;;;;;;;;;5018408;28;20264;-31
2022/08/14 06:57:34;;;;;;;;;;;;;;;;;;5018326;28;19913;-30
2022/08/14 07:00:00;;;;;;;;;;;;;;;;;;5018562;28;19967;-31
2022/08/14 07:07:57;;;;;;;;;;;;;;;;;;5018128;28;19944;-32
2022/08/14 07:10:23;;;;;;;;;;;;;;;;;;5018654;28;19914;-31
2022/08/14 07:12:49;;;;;;;;;;;;;;;;;;5018571;28;19913;-31
2022/08/14 07:15:15;;;;;;;;;;;;;;;;;;5018022;28;19967;-31
2022/08/14 07:17:41;;;;;;;;;;;;;;;;;;5018014;28;20009;-31
2022/08/14 07:20:07;;;;;;;;;;;;;;;;;;5017952;28;19921;-31
2022/08/14 07:22:34;;;;;;;;;;;;;;;;;;5018358;28;20257;-32
2022/08/14 07:25:00;;;;;;;;;;;;;;;;;;5018103;28;20287;-32
2022/08/14 07:27:26;;;;;;;;;;;;;;;;;;5017684;28;19918;-31
2022/08/14 07:29:52;;;;;;;;;;;;;;;;;;5017754;28;20005;-31
2022/08/14 07:32:18;;;;;;;;;;;;;;;;;;5017618;28;19913;-31
2022/08/14 07:34:44;;;;;;;;;;;;;;;;;;5018197;28;20319;-31
2022/08/14 07:37:10;;;;;;;;;;;;;;;;;;5017633;28;19914;-31
2022/08/14 07:39:36;;;;;;;;;;;;;;;;;;5017600;28;19920;-30
2022/08/14 07:42:02;;;;;;;;;;;;;;;;;;5017942;28;20309;-31
2022/08/14 07:44:28;;;;;;;;;;;;;;;;;;5017497;28;19914;-31
2022/08/14 07:46:54;;;;;;;;;;;;;;;;;;5016868;28;19927;-31
2022/08/14 07:49:20;;;;;;;;;;;;;;;;;;5018225;28;19913;-32
2022/08/14 07:51:46;;;;;;;;;;;;;;;;;;5017336;28;19920;-31
2022/08/14 07:54:12;;;;;;;;;;;;;;;;;;5016261;28;19940;-31
2022/08/14 07:56:38;;;;;;;;;;;;;;;;;;5017220;28;19918;-31
2022/08/14 07:59:04;;;;;;;;;;;;;;;;;;5017487;28;19913;-30
2022/08/14 08:01:32;;;;;;;;;;;;;;;;;;5017087;28;20383;-31
2022/08/14 08:03:58;;;;;;;;;;;;;;;;;;5017017;28;19928;-31
2022/08/14 08:06:24;;;;;;;;;;;;;;;;;;5017569;28;19917;-31
2022/08/14 08:08:50;;;;;;;;;;;;;;;;;;5016962;28;20341;-32
2022/08/14 08:11:18;;;;;;;;;;;;;;;;;;5017551;28;19996;-31
2022/08/14 08:13:44;;;;;;;;;;;;;;;;;;5017655;28;19947;-31
2022/08/14 08:16:10;;;;;;;;;;;;;;;;;;5016863;28;20352;-31
2022/08/14 08:18:36;;;;;;;;;;;;;;;;;;5017341;28;19914;-31
2022/08/14 08:21:02;;;;;;;;;;;;;;;;;;5016795;28;19963;-31
2022/08/14 08:23:28;;;;;;;;;;;;;;;;;;5016638;28;19948;-32
2022/08/14 08:25:54;;;;;;;;;;;;;;;;;;5016975;28;20344;-32
2022/08/14 08:28:20;;;;;;;;;;;;;;;;;;5017082;28;20023;-30
2022/08/14 08:30:46;;;;;;;;;;;;;;;;;;5016816;28;19909;-32
2022/08/14 08:33:15;;;;;;;;;;;;;;;;;;5016729;28;19916;-31
2022/08/14 08:35:41;;;;;;;;;;;;;;;;;;5016506;28;19914;-32
2022/08/14 08:38:07;;;;;;;;;;;;;;;;;;5016491;28;19914;-31
2022/08/14 08:40:37;;;;;;;;;;;;;;;;;;5016713;28;19944;-32
2022/08/14 08:43:03;;;;;;;;;;;;;;;;;;5016305;28;19913;-31
2022/08/14 08:45:29;;;;;;;;;;;;;;;;;;5016337;28;20004;-31
2022/08/14 08:47:55;;;;;;;;;;;;;;;;;;5016742;28;19917;-30
2022/08/14 08:50:21;;;;;;;;;;;;;;;;;;5016320;28;19920;-31
2022/08/14 08:52:48;;;;;;;;;;;;;;;;;;5016496;28;20365;-32
2022/08/14 08:55:14;;;;;;;;;;;;;;;;;;5016650;28;19913;-31
2022/08/14 08:57:41;;;;;;;;;;;;;;;;;;5015354;28;19996;-31
2022/08/14 09:00:08;;;;;;;;;;;;;;;;;;5016340;28;19920;-31
2022/08/14 09:02:34;;;;;;;;;;;;;;;;;;5016236;28;20011;-31
2022/08/14 09:05:00;;;;;;;;;;;;;;;;;;5015826;28;20268;-31
2022/08/14 09:07:25;;;;;;;;;;;;;;;;;;5015874;28;20043;-31
2022/08/14 09:09:51;;;;;;;;;;;;;;;;;;5016448;28;19924;-31
2022/08/14 09:12:17;;;;;;;;;;;;;;;;;;5015870;28;19972;-31
2022/08/14 09:14:45;;;;;;;;;;;;;;;;;;5016118;28;19976;-31
2022/08/14 09:17:11;;;;;;;;;;;;;;;;;;5016055;28;20308;-31
2022/08/14 09:19:37;;;;;;;;;;;;;;;;;;5015802;28;19925;-31
2022/08/14 09:22:03;;;;;;;;;;;;;;;;;;5015954;28;20004;-31
2022/08/14 09:24:29;;;;;;;;;;;;;;;;;;5015700;28;20339;-32
2022/08/14 09:26:55;;;;;;;;;;;;;;;;;;5015601;28;19971;-31
2022/08/14 09:29:21;;;;;;;;;;;;;;;;;;5015865;28;19917;-31
2022/08/14 09:31:47;;;;;;;;;;;;;;;;;;5016141;28;19909;-32
2022/08/14 09:34:14;;;;;;;;;;;;;;;;;;5015760;28;20070;-31
2022/08/14 09:36:40;;;;;;;;;;;;;;;;;;5015552;28;19913;-31
2022/08/14 09:39:06;;;;;;;;;;;;;;;;;;5016052;28;19963;-31
2022/08/14 09:41:32;;;;;;;;;;;;;;;;;;5015454;28;20371;-31
2022/08/14 09:43:59;;;;;;;;;;;;;;;;;;5015397;28;19914;-31
2022/08/14 09:46:26;;;;;;;;;;;;;;;;;;5015608;28;19946;-30
2022/08/14 09:48:52;;;;;;;;;;;;;;;;;;5015329;28;19931;-31
2022/08/14 09:51:18;;;;;;;;;;;;;;;;;;5015410;28;19945;-31
2022/08/14 09:53:44;;;;;;;;;;;;;;;;;;5014353;28;20268;-31
2022/08/14 09:56:11;;;;;;;;;;;;;;;;;;5015322;28;19924;-32
2022/08/14 09:58:37;;;;;;;;;;;;;;;;;;5016108;28;19914;-31
2022/08/14 10:01:04;;;;;;;;;;;;;;;;;;5015236;28;19914;-32
2022/08/14 10:03:32;;;;;;;;;;;;;;;;;;5014965;28;19913;-32
2022/08/14 10:05:59;;;;;;;;;;;;;;;;;;5015802;28;20224;-31
2022/08/14 10:08:25;;;;;;;;;;;;;;;;;;5015691;28;19921;-32
2022/08/14 10:10:51;;;;;;;;;;;;;;;;;;5019522;28;19921;-32
2022/08/14 10:13:18;;;;;;;;;;;;;;;;;;5019173;28;19964;-30
2022/08/14 10:15:44;;;;;;;;;;;;;;;;;;5019138;28;19921;-30
2022/08/14 10:18:10;;;;;;;;;;;;;;;;;;5018985;28;19917;-31
2022/08/14 10:20:38;;;;;;;;;;;;;;;;;;5019010;28;19913;-31
2022/08/14 10:23:04;;;;;;;;;;;;;;;;;;5018920;28;20353;-32
2022/08/14 10:25:31;;;;;;;;;;;;;;;;;;5019484;28;19914;-31
2022/08/14 10:27:57;;;;;;;;;;;;;;;;;;5018806;28;19971;-32
2022/08/14 10:30:23;;;;;;;;;;;;;;;;;;5018849;28;19910;-32
2022/08/14 10:32:49;;;;;;;;;;;;;;;;;;5019117;28;19914;-31
2022/08/14 10:35:15;;;;;;;;;;;;;;;;;;5019099;28;19940;-31
2022/08/14 10:37:41;;;;;;;;;;;;;;;;;;5019291;28;19945;-30
2022/08/14 10:40:07;;;;;;;;;;;;;;;;;;5018738;28;20367;-31
2022/08/14 10:42:33;;;;;;;;;;;;;;;;;;5018613;28;19924;-30
2022/08/14 10:44:59;;;;;;;;;;;;;;;;;;5018917;28;20332;-31
2022/08/14 10:47:25;;;;;;;;;;;;;;;;;;5018765;28;19917;-31
2022/08/14 10:49:51;;;;;;;;;;;;;;;;;;5018442;28;20345;-32
2022/08/14 10:52:17;;;;;;;;;;;;;;;;;;5018730;28;19917;-31
2022/08/14 10:54:43;;;;;;;;;;;;;;;;;;5018429;28;19913;-30
2022/08/14 10:57:10;;;;;;;;;;;;;;;;;;5018374;28;20004;-31
2022/08/14 10:59:37;;;;;;;;;;;;;;;;;;5018882;28;20360;-31
2022/08/14 11:02:04;;;;;;;;;;;;;;;;;;5018435;28;19913;-31
2022/08/14 11:04:30;;;;;;;;;;;;;;;;;;5018161;28;20242;-31
2022/08/14 11:06:56;;;;;;;;;;;;;;;;;;5018391;28;20306;-32
2022/08/14 11:09:22;;;;;;;;;;;;;;;;;;5018145;28;19939;-32
2022/08/14 11:11:49;;;;;;;;;;;;;;;;;;5018095;28;19920;-31
2022/08/14 11:14:15;;;;;;;;;;;;;;;;;;5018805;28;19913;-31
2022/08/14 11:16:41;;;;;;;;;;;;;;;;;;5018033;28;19937;-31
2022/08/14 11:19:07;;;;;;;;;;;;;;;;;;5017974;28;20012;-31
2022/08/14 11:21:33;;;;;;;;;;;;;;;;;;5017411;28;19910;-31
2022/08/14 11:23:59;;;;;;;;;;;;;;;;;;5018073;28;19914;-31
2022/08/14 11:26:26;;;;;;;;;;;;;;;;;;5017831;28;19920;-32
2022/08/14 11:28:52;;;;;;;;;;;;;;;;;;5017994;28;20300;-31
2022/08/14 11:31:18;;;;;;;;;;;;;;;;;;5017714;28;19971;-31
2022/08/14 11:33:44;;;;;;;;;;;;;;;;;;5017878;28;19967;-31
2022/08/14 11:36:12;;;;;;;;;;;;;;;;;;5017685;28;20360;-32
2022/08/14 11:38:39;;;;;;;;;;;;;;;;;;5017569;28;19956;-31
2022/08/14 11:41:06;;;;;;;;;;;;;;;;;;5017968;28;19920;-31
2022/08/14 11:43:32;;;;;;;;;;;;;;;;;;5017380;28;20029;-31
2022/08/14 11:45:58;;;;;;;;;;;;;;;;;;5017739;28;20257;-30
2022/08/14 11:48:24;;;;;;;;;;;;;;;;;;5016453;28;19918;-31
2022/08/14 11:50:53;;;;;;;;;;;;;;;;;;5017429;28;19921;-31
2022/08/14 11:53:19;;;;;;;;;;;;;;;;;;5017499;28;19914;-32
2022/08/14 11:55:45;;;;;;;;;;;;;;;;;;5017328;28;20351;-31
2022/08/14 11:58:11;;;;;;;;;;;;;;;;;;5017235;28;19918;-31
2022/08/14 12:00:37;;;;;;;;;;;;;;;;;;5017476;28;19960;-32
2022/08/14 12:03:03;;;;;;;;;;;;;;;;;;5017327;28;19971;-31
2022/08/14 12:05:31;;;;;;;;;;;;;;;;;;5016292;28;20218;-31
2022/08/14 12:07:57;;;;;;;;;;;;;;;;;;5017224;28;19952;-30
2022/08/14 12:10:23;;;;;;;;;;;;;;;;;;5016953;28;19960;-33
2022/08/14 12:12:54;;;;;;;;;;;;;;;;;;5017409;28;19918;-31
2022/08/14 12:15:20;;;;;;;;;;;;;;;;;;5016895;28;19964;-31
2022/08/14 12:17:49;;;;;;;;;;;;;;;;;;5017079;28;19917;-32
2022/08/14 12:20:15;;;;;;;;;;;;;;;;;;5017088;28;19909;-31
2022/08/14 12:22:41;;;;;;;;;;;;;;;;;;5016941;28;20240;-32
2022/08/14 12:25:07;;;;;;;;;;;;;;;;;;5016693;28;19913;-32
2022/08/14 12:27:33;;;;;;;;;;;;;;;;;;5016871;28;19928;-32
2022/08/14 12:29:59;;;;;;;;;;;;;;;;;;5016921;28;20218;-31
2022/08/14 12:32:25;;;;;;;;;;;;;;;;;;5016796;28;20321;-31
2022/08/14 12:34:51;;;;;;;;;;;;;;;;;;5016508;28;19924;-33
2022/08/14 12:37:17;;;;;;;;;;;;;;;;;;5016516;28;19996;-32
2022/08/14 12:39:43;;;;;;;;;;;;;;;;;;5016466;28;20294;-32
2022/08/14 12:42:09;;;;;;;;;;;;;;;;;;5016601;28;19968;-32
2022/08/14 12:44:36;;;;;;;;;;;;;;;;;;5016645;28;20244;-31
2022/08/14 12:47:02;;;;;;;;;;;;;;;;;;5016847;28;20245;-30
2022/08/14 12:49:28;;;;;;;;;;;;;;;;;;5016575;28;20269;-31
2022/08/14 12:51:54;;;;;;;;;;;;;;;;;;5016750;28;19913;-30
2022/08/14 12:54:20;;;;;;;;;;;;;;;;;;5016309;28;19933;-31
2022/08/14 12:56:46;;;;;;;;;;;;;;;;;;5016182;28;19925;-31
2022/08/14 12:59:12;;;;;;;;;;;;;;;;;;5016050;28;19948;-30
2022/08/14 13:01:39;;;;;;;;;;;;;;;;;;5016088;28;19910;-31
2022/08/14 13:04:07;;;;;;;;;;;;;;;;;;5015945;28;20376;-33
2022/08/14 13:06:33;;;;;;;;;;;;;;;;;;5016180;28;19913;-32
2022/08/14 13:08:59;;;;;;;;;;;;;;;;;;5015949;28;19971;-31
2022/08/14 13:11:25;;;;;;;;;;;;;;;;;;5016166;28;20003;-30
2022/08/14 13:13:51;;;;;;;;;;;;;;;;;;5015785;28;19975;-32
2022/08/14 13:16:17;;;;;;;;;;;;;;;;;;5015845;28;19909;-31
2022/08/14 13:18:45;;;;;;;;;;;;;;;;;;5015802;28;19913;-31
2022/08/14 13:21:12;;;;;;;;;;;;;;;;;;5015798;28;20407;-31
2022/08/14 13:23:38;;;;;;;;;;;;;;;;;;5015663;28;19914;-31
2022/08/14 13:26:04;;;;;;;;;;;;;;;;;;5015967;28;19928;-31
2022/08/14 13:28:30;;;;;;;;;;;;;;;;;;5015874;28;19925;-32
2022/08/14 13:30:56;;;;;;;;;;;;;;;;;;5016158;28;19909;-30
2022/08/14 13:33:22;;;;;;;;;;;;;;;;;;5015515;28;19924;-31
2022/08/14 13:35:48;;;;;;;;;;;;;;;;;;5015537;28;19913;-31
2022/08/14 13:38:14;;;;;;;;;;;;;;;;;;5015542;28;19920;-32
2022/08/14 13:40:40;;;;;;;;;;;;;;;;;;5016089;28;19909;-31
2022/08/14 13:43:07;;;;;;;;;;;;;;;;;;5014952;28;19914;-31
2022/08/14 13:45:34;;;;;;;;;;;;;;;;;;5015732;28;20285;-32
2022/08/14 13:48:00;;;;;;;;;;;;;;;;;;5015689;28;19987;-32
2022/08/14 13:50:26;;;;;;;;;;;;;;;;;;5015313;28;19914;-31
2022/08/14 13:52:55;;;;;;;;;;;;;;;;;;5015329;28;19909;-31
2022/08/14 13:55:21;;;;;;;;;;;;;;;;;;5015594;28;20323;-31
2022/08/14 13:57:47;;;;;;;;;;;;;;;;;;5015304;28;20325;-31
2022/08/14 14:00:13;;;;;;;;;;;;;;;;;;5015832;28;19920;-31
2022/08/14 14:02:39;;;;;;;;;;;;;;;;;;5015449;28;19925;-32
2022/08/14 14:05:05;;;;;;;;;;;;;;;;;;5015090;28;20364;-32
2022/08/14 14:07:31;;;;;;;;;;;;;;;;;;5015403;28;19929;-32
2022/08/14 14:09:57;;;;;;;;;;;;;;;;;;5015468;28;19910;-31
2022/08/14 14:12:23;;;;;;;;;;;;;;;;;;5015644;28;20012;-32
2022/08/14 14:14:50;;;;;;;;;;;;;;;;;;5015143;28;19984;-31
2022/08/14 14:17:17;;;;;;;;;;;;;;;;;;5015184;28;19913;-31
2022/08/14 14:19:46;;;;;;;;;;;;;;;;;;5015105;28;19913;-31
2022/08/14 14:22:12;;;;;;;;;;;;;;;;;;5015343;28;20311;-31
2022/08/14 14:24:38;;;;;;;;;;;;;;;;;;5015374;28;20233;-30
2022/08/14 14:27:04;;;;;;;;;;;;;;;;;;5015545;28;19921;-31
2022/08/14 14:29:30;;;;;;;;;;;;;;;;;;5015032;28;19917;-32
2022/08/14 14:31:57;;;;;;;;;;;;;;;;;;5015235;28;20315;-32
2022/08/14 14:34:23;;;;;;;;;;;;;;;;;;5014978;28;20244;-32
2022/08/14 14:36:49;;;;;;;;;;;;;;;;;;5014994;28;19910;-31
2022/08/14 14:39:15;;;;;;;;;;;;;;;;;;5015163;28;19992;-32
2022/08/14 14:41:41;;;;;;;;;;;;;;;;;;5014942;28;20321;-30
2022/08/14 14:44:07;;;;;;;;;;;;;;;;;;5015072;28;19983;-32
2022/08/14 14:46:34;;;;;;;;;;;;;;;;;;5014944;28;19920;-32
2022/08/14 14:49:00;;;;;;;;;;;;;;;;;;5014740;28;20372;-32
2022/08/14 14:51:26;;;;;;;;;;;;;;;;;;5015920;28;20202;-32
2022/08/14 14:53:52;;;;;;;;;;;;;;;;;;5014733;28;19921;-32
2022/08/14 14:56:18;;;;;;;;;;;;;;;;;;5016665;28;19910;-30
2022/08/14 14:58:45;;;;;;;;;;;;;;;;;;5018352;28;20015;-31
2022/08/14 15:01:11;;;;;;;;;;;;;;;;;;5018332;28;20016;-32
2022/08/14 15:03:42;;;;;;;;;;;;;;;;;;5017936;28;20010;-31
2022/08/14 15:06:08;;;;;;;;;;;;;;;;;;5018534;28;20320;-32
2022/08/14 15:08:34;;;;;;;;;;;;;;;;;;5018659;28;19960;-31
2022/08/14 15:11:00;;;;;;;;;;;;;;;;;;5018393;28;19947;-31
2022/08/14 15:13:26;;;;;;;;;;;;;;;;;;5018046;28;19913;-31
2022/08/14 15:15:54;;;;;;;;;;;;;;;;;;5018089;28;20005;-31
2022/08/14 15:18:20;;;;;;;;;;;;;;;;;;5017917;28;19914;-32
2022/08/14 15:20:46;;;;;;;;;;;;;;;;;;5018273;28;20304;-31
2022/08/14 15:23:12;;;;;;;;;;;;;;;;;;5018198;28;19921;-32
2022/08/14 15:25:38;;;;;;;;;;;;;;;;;;5017860;28;19952;-31
2022/08/14 15:28:10;;;;;;;;;;;;;;;;;;5018600;28;19959;-32
2022/08/14 15:30:36;;;;;;;;;;;;;;;;;;5017757;28;19944;-31
2022/08/14 15:33:02;;;;;;;;;;;;;;;;;;5017667;28;19987;-31
2022/08/14 15:35:28;;;;;;;;;;;;;;;;;;5016782;28;19920;-31
2022/08/14 15:37:54;;;;;;;;;;;;;;;;;;5017614;28;19948;-32
2022/08/14 15:40:20;;;;;;;;;;;;;;;;;;5017907;28;19921;-32
2022/08/14 15:42:47;;;;;;;;;;;;;;;;;;5017501;28;19914;-31
2022/08/14 15:45:15;;;;;;;;;;;;;;;;;;5017549;28;19910;-31
2022/08/14 15:47:41;;;;;;;;;;;;;;;;;;5017419;28;20011;-31
2022/08/14 15:50:07;;;;;;;;;;;;;;;;;;5017423;28;19968;-31
2022/08/14 15:52:34;;;;;;;;;;;;;;;;;;5017678;28;20343;-31
2022/08/14 15:55:00;;;;;;;;;;;;;;;;;;5017313;28;19909;-31
2022/08/14 15:57:26;;;;;;;;;;;;;;;;;;5017548;28;20250;-31
2022/08/14 16:02:37;;;;;;;;;;;;;;;;;;5017134;28;19967;-31
2022/08/14 16:05:04;;;;;;;;;;;;;;;;;;5016983;28;19955;-31
2022/08/14 16:07:30;;;;;;;;;;;;;;;;;;5017016;28;19917;-32
2022/08/14 16:09:57;;;;;;;;;;;;;;;;;;5017315;28;19913;-31
2022/08/14 16:12:23;;;;;;;;;;;;;;;;;;5016962;28;19959;-31
2022/08/14 16:14:49;;;;;;;;;;;;;;;;;;5016946;28;19917;-31
2022/08/14 16:17:15;;;;;;;;;;;;;;;;;;5017752;28;19909;-31
2022/08/14 16:19:41;;;;;;;;;;;;;;;;;;5017132;28;19913;-30
2022/08/14 16:22:12;;;;;;;;;;;;;;;;;;5016788;28;19920;-32
2022/08/14 16:24:38;;;;;;;;;;;;;;;;;;5016776;28;20007;-31
2022/08/14 16:27:04;;;;;;;;;;;;;;;;;;5016736;28;20027;-32
2022/08/14 16:29:30;;;;;;;;;;;;;;;;;;5016718;28;19920;-30
2022/08/14 16:31:56;;;;;;;;;;;;;;;;;;5016603;28;19913;-31
2022/08/14 16:34:22;;;;;;;;;;;;;;;;;;5016623;28;20008;-32
2022/08/14 16:36:48;;;;;;;;;;;;;;;;;;5016572;28;19914;-31
2022/08/14 16:39:15;;;;;;;;;;;;;;;;;;5016506;28;19913;-31
2022/08/14 16:41:41;;;;;;;;;;;;;;;;;;5016739;28;20296;-31
2022/08/14 16:44:07;;;;;;;;;;;;;;;;;;5016612;28;20403;-31
2022/08/14 16:46:33;;;;;;;;;;;;;;;;;;5017169;28;19913;-32
2022/08/14 16:48:59;;;;;;;;;;;;;;;;;;5016812;28;19917;-32
2022/08/14 16:51:25;;;;;;;;;;;;;;;;;;5016316;28;20356;-32
2022/08/14 16:53:53;;;;;;;;;;;;;;;;;;5016527;28;20035;-31
2022/08/14 16:56:19;;;;;;;;;;;;;;;;;;5016432;28;19913;-31
2022/08/14 16:58:48;;;;;;;;;;;;;;;;;;5017055;28;20349;-31